createdAt,value
2022-08-20T00:02:17.145Z,20.20
2022-08-20T00:04:45.324Z,21.90
2022-08-20T00:07:15.785Z,20.20
2022-08-20T00:09:46.335Z,19.70
2022-08-20T00:12:17.809Z,21.40
2022-08-20T00:14:46.756Z,21.40
2022-08-20T00:17:14.636Z,17.10
2022-08-20T00:19:42.413Z,23.70
2022-08-20T00:22:10.216Z,26.30
2022-08-20T00:24:38.185Z,18.70
2022-08-20T00:27:06.320Z,17.10
2022-08-20T00:29:34.105Z,24.90
2022-08-20T00:32:01.956Z,20.40
2022-08-20T00:34:31.172Z,20.80
2022-08-20T00:36:58.885Z,19.30
2022-08-20T00:39:28.041Z,20.20
2022-08-20T00:41:55.806Z,22.90
2022-08-20T00:44:23.701Z,20.60
2022-08-20T00:46:53.952Z,21.70
2022-08-20T00:49:26.587Z,21.10
2022-08-20T00:52:12.683Z,22.40
2022-08-20T00:54:50.746Z,19.80
2022-08-20T00:57:27.025Z,19.50
2022-08-20T01:02:46.644Z,20.30
2022-08-20T01:05:19.613Z,20.50
2022-08-20T01:07:48.610Z,19.40
2022-08-20T01:10:29.871Z,23.60
2022-08-20T01:13:03.472Z,21.70
2022-08-20T01:15:31.995Z,20.70
2022-08-20T01:18:02.356Z,20.40
2022-08-20T01:20:54.456Z,20.20
2022-08-20T01:23:33.419Z,24.30
2022-08-20T01:26:10.344Z,20.10
2022-08-20T01:28:44.483Z,21.80
2022-08-20T01:31:17.259Z,22.30
2022-08-20T01:33:49.964Z,19.90
2022-08-20T01:36:23.088Z,17.90
2022-08-20T01:38:54.568Z,22.00
2022-08-20T01:41:32.968Z,18.90
2022-08-20T01:44:04.403Z,20.70
2022-08-20T01:46:38.924Z,23.90
2022-08-20T01:49:35.392Z,20.40
2022-08-20T01:52:08.814Z,20.20
2022-08-20T01:54:36.578Z,19.70
2022-08-20T01:57:17.459Z,29.70
2022-08-20T01:59:48.898Z,22.20
2022-08-20T02:02:18.430Z,19.50
2022-08-20T02:04:46.189Z,19.40
2022-08-20T02:07:21.657Z,21.00
2022-08-20T02:09:51.137Z,21.50
2022-08-20T02:12:20.481Z,20.10
2022-08-20T02:14:52.263Z,22.20
2022-08-20T02:17:23.518Z,20.90
2022-08-20T02:20:00.182Z,22.70
2022-08-20T02:22:50.375Z,21.10
2022-08-20T02:25:22.892Z,21.40
2022-08-20T02:27:53.505Z,23.40
2022-08-20T02:30:28.476Z,20.40
2022-08-20T02:32:58.106Z,23.40
2022-08-20T02:35:27.929Z,22.80
2022-08-20T02:37:57.512Z,20.60
2022-08-20T02:40:31.168Z,22.10
2022-08-20T02:43:02.935Z,20.70
2022-08-20T02:45:37.381Z,22.10
2022-08-20T02:48:06.559Z,21.10
2022-08-20T02:50:34.567Z,23.70
2022-08-20T02:53:02.830Z,25.00
2022-08-20T02:55:31.072Z,23.50
2022-08-20T02:58:02.175Z,24.20
2022-08-20T03:00:38.336Z,21.40
2022-08-20T03:03:11.172Z,21.60
2022-08-20T03:05:41.870Z,24.20
2022-08-20T03:08:14.988Z,22.10
2022-08-20T03:10:46.306Z,22.30
2022-08-20T03:13:16.682Z,24.50
2022-08-20T03:15:48.928Z,23.10
2022-08-20T03:18:19.943Z,21.90
2022-08-20T03:20:52.152Z,19.20
2022-08-20T03:23:22.303Z,21.50
2022-08-20T03:25:50.215Z,20.90
2022-08-20T03:28:20.012Z,21.10
2022-08-20T03:30:51.561Z,21.40
2022-08-20T03:33:21.497Z,22.20
2022-08-20T03:35:49.388Z,22.70
2022-08-20T03:38:21.556Z,22.10
2022-08-20T03:41:04.542Z,20.50
2022-08-20T03:43:33.684Z,24.90
2022-08-20T03:46:03.560Z,22.90
2022-08-20T03:48:31.493Z,22.90
2022-08-20T03:51:01.109Z,22.20
2022-08-20T03:53:33.321Z,22.80
2022-08-20T03:56:05.600Z,22.60
2022-08-20T03:58:36.701Z,26.50
2022-08-20T04:01:07.270Z,22.50
2022-08-20T04:03:36.771Z,20.10
2022-08-20T04:06:05.612Z,24.50
2022-08-20T04:08:33.434Z,24.10
2022-08-20T04:11:01.282Z,25.40
2022-08-20T04:13:31.490Z,25.60
2022-08-20T04:16:11.246Z,27.20
2022-08-20T04:18:56.096Z,27.30
2022-08-20T04:21:36.224Z,23.00
2022-08-20T04:26:38.245Z,22.30
2022-08-20T04:29:06.056Z,23.50
2022-08-20T04:31:35.409Z,23.10
2022-08-20T04:34:08.381Z,21.30
2022-08-20T04:36:37.388Z,22.20
2022-08-20T04:39:05.228Z,22.30
2022-08-20T04:41:32.976Z,21.90
2022-08-20T04:44:01.983Z,26.70
2022-08-20T04:46:32.741Z,24.40
2022-08-20T04:49:04.687Z,22.90
2022-08-20T04:51:34.378Z,23.40
2022-08-20T04:54:05.318Z,21.50
2022-08-20T04:56:40.701Z,25.30
2022-08-20T04:59:08.619Z,20.60
2022-08-20T05:01:36.609Z,24.00
2022-08-20T05:04:06.471Z,22.60
2022-08-20T05:06:35.465Z,24.00
2022-08-20T05:09:06.071Z,23.90
2022-08-20T05:11:37.053Z,22.50
2022-08-20T05:14:11.505Z,21.80
2022-08-20T05:19:12.628Z,22.80
2022-08-20T05:21:41.747Z,22.00
2022-08-20T05:24:12.310Z,24.90
2022-08-20T05:26:42.787Z,23.70
2022-08-20T05:29:10.608Z,23.00
2022-08-20T05:31:40.379Z,22.70
2022-08-20T05:34:12.962Z,23.50
2022-08-20T05:36:49.639Z,27.50
2022-08-20T05:39:21.616Z,28.70
2022-08-20T05:41:50.985Z,19.30
2022-08-20T05:44:20.866Z,19.80
2022-08-20T05:46:48.791Z,23.80
2022-08-20T05:49:22.685Z,20.50
2022-08-20T05:51:53.668Z,22.00
2022-08-20T05:54:24.875Z,19.60
2022-08-20T05:56:52.813Z,22.80
2022-08-20T05:59:24.283Z,28.40
2022-08-20T06:01:54.229Z,21.90
2022-08-20T06:04:25.062Z,18.30
2022-08-20T06:07:05.127Z,23.60
2022-08-20T06:09:36.130Z,21.30
2022-08-20T06:12:08.472Z,22.30
2022-08-20T06:14:36.467Z,24.90
2022-08-20T06:17:09.450Z,19.90
2022-08-20T06:19:42.739Z,24.30
2022-08-20T06:22:19.787Z,24.00
2022-08-20T06:24:57.075Z,25.00
2022-08-20T06:27:24.868Z,20.00
2022-08-20T06:29:53.985Z,19.10
2022-08-20T06:32:32.158Z,22.10
2022-08-20T06:35:06.001Z,26.40
2022-08-20T06:37:38.473Z,19.70
2022-08-20T06:40:17.543Z,20.30
2022-08-20T06:42:48.764Z,22.30
2022-08-20T06:45:25.729Z,20.10
2022-08-20T06:47:59.488Z,20.10
2022-08-20T06:50:44.458Z,19.30
2022-08-20T06:53:20.972Z,19.70
2022-08-20T06:55:54.092Z,22.20
2022-08-20T07:01:11.639Z,20.80
2022-08-20T07:03:55.531Z,16.70
2022-08-20T07:06:27.101Z,15.40
2022-08-20T07:08:56.437Z,19.50
2022-08-20T07:11:28.410Z,23.20
2022-08-20T07:14:00.439Z,27.80
2022-08-20T07:16:30.764Z,18.60
2022-08-20T07:18:59.731Z,20.80
2022-08-20T07:21:27.648Z,21.80
2022-08-20T07:23:55.447Z,24.20
2022-08-20T07:26:23.423Z,20.30
2022-08-20T07:28:51.549Z,20.30
2022-08-20T07:31:39.056Z,21.80
2022-08-20T07:34:12.447Z,17.90
2022-08-20T07:36:41.439Z,22.80
2022-08-20T07:39:09.461Z,19.00
2022-08-20T07:41:37.225Z,22.20
2022-08-20T07:44:04.945Z,21.00
2022-08-20T07:46:33.887Z,13.00
2022-08-20T07:49:01.735Z,15.50
2022-08-20T07:51:29.589Z,18.60
2022-08-20T07:53:59.355Z,19.20
2022-08-20T07:56:27.976Z,16.90
2022-08-20T07:59:00.147Z,17.00
2022-08-20T08:01:31.941Z,17.50
2022-08-20T08:04:02.750Z,14.60
2022-08-20T08:06:32.268Z,17.10
2022-08-20T08:09:13.218Z,16.90
2022-08-20T08:11:50.089Z,18.20
2022-08-20T08:14:27.086Z,13.30
2022-08-20T08:16:59.095Z,16.30
2022-08-20T08:19:35.366Z,15.30
2022-08-20T08:22:04.564Z,16.00
2022-08-20T08:24:32.507Z,14.40
2022-08-20T08:27:01.528Z,16.40
2022-08-20T08:29:29.603Z,13.50
2022-08-20T08:31:57.322Z,15.60
2022-08-20T08:34:26.853Z,13.50
2022-08-20T08:36:54.674Z,17.20
2022-08-20T08:39:26.238Z,12.70
2022-08-20T08:42:07.101Z,16.80
2022-08-20T08:44:43.000Z,13.10
2022-08-20T08:47:21.736Z,16.40
2022-08-20T08:49:51.122Z,16.90
2022-08-20T08:52:32.394Z,14.50
2022-08-20T08:55:08.073Z,16.10
2022-08-20T08:57:37.080Z,13.40
2022-08-20T09:00:14.348Z,12.40
2022-08-20T09:02:59.632Z,17.20
2022-08-20T09:05:53.293Z,15.30
2022-08-20T09:08:37.206Z,16.70
2022-08-20T09:11:09.340Z,13.00
2022-08-20T09:13:37.449Z,20.50
2022-08-20T09:16:05.261Z,12.40
2022-08-20T09:18:33.109Z,16.60
2022-08-20T09:21:01.000Z,16.40
2022-08-20T09:23:28.822Z,15.20
2022-08-20T09:25:57.837Z,14.00
2022-08-20T09:28:32.332Z,18.00
2022-08-20T09:31:05.715Z,8.60
2022-08-20T09:33:35.789Z,17.40
2022-08-20T09:36:03.957Z,18.20
2022-08-20T09:38:53.757Z,12.20
2022-08-20T09:41:23.577Z,13.70
2022-08-20T09:43:51.383Z,14.50
2022-08-20T09:46:19.159Z,13.40
2022-08-20T09:48:49.007Z,15.10
2022-08-20T09:51:17.866Z,13.00
2022-08-20T09:53:46.671Z,17.70
2022-08-20T09:56:14.709Z,13.00
2022-08-20T09:58:50.393Z,14.50
2022-08-20T10:01:22.476Z,14.30
2022-08-20T10:03:52.700Z,17.80
2022-08-20T10:06:21.656Z,18.30
2022-08-20T10:08:51.340Z,13.30
2022-08-20T10:11:21.105Z,15.50
2022-08-20T10:13:49.204Z,16.60
2022-08-20T10:16:16.925Z,17.40
2022-08-20T10:18:44.736Z,12.70
2022-08-20T10:21:13.611Z,18.60
2022-08-20T10:23:42.850Z,16.40
2022-08-20T10:26:13.174Z,13.90
2022-08-20T10:28:42.467Z,15.20
2022-08-20T10:31:12.761Z,15.70
2022-08-20T10:33:42.269Z,17.70
2022-08-20T10:36:16.298Z,17.00
2022-08-20T10:38:46.232Z,14.80
2022-08-20T10:41:14.015Z,12.10
2022-08-20T10:43:42.891Z,15.40
2022-08-20T10:46:13.876Z,15.70
2022-08-20T10:48:42.788Z,15.80
2022-08-20T10:51:10.621Z,17.70
2022-08-20T10:53:41.623Z,15.20
2022-08-20T10:56:13.801Z,15.90
2022-08-20T10:58:44.611Z,16.70
2022-08-20T11:01:12.545Z,24.60
2022-08-20T11:04:00.134Z,20.50
2022-08-20T11:06:27.876Z,19.00
2022-08-20T11:08:57.003Z,17.50
2022-08-20T11:11:24.966Z,16.50
2022-08-20T11:13:52.748Z,16.20
2022-08-20T11:16:20.495Z,19.70
2022-08-20T11:18:50.554Z,18.90
2022-08-20T11:21:18.391Z,15.70
2022-08-20T11:23:46.539Z,21.70
2022-08-20T11:26:22.392Z,19.20
2022-08-20T11:28:51.311Z,17.90
2022-08-20T11:31:19.079Z,17.10
2022-08-20T11:33:46.812Z,18.80
2022-08-20T11:36:14.630Z,15.00
2022-08-20T11:38:42.383Z,16.80
2022-08-20T11:41:10.359Z,16.90
2022-08-20T11:43:38.065Z,14.00
2022-08-20T11:46:05.988Z,20.90
2022-08-20T11:48:33.787Z,16.20
2022-08-20T11:51:01.563Z,15.00
2022-08-20T11:53:30.980Z,17.00
2022-08-20T11:56:03.833Z,23.00
2022-08-20T11:58:35.300Z,15.60
2022-08-20T12:01:03.027Z,18.50
2022-08-20T12:03:32.548Z,13.70
2022-08-20T12:06:00.404Z,19.90
2022-08-20T12:08:29.491Z,18.30
2022-08-20T12:10:59.976Z,16.70
2022-08-20T12:13:48.570Z,15.90
2022-08-20T12:16:20.021Z,14.90
2022-08-20T12:18:49.869Z,70.90
2022-08-20T12:21:18.773Z,55.00
2022-08-20T12:23:46.572Z,40.20
2022-08-20T12:26:18.275Z,27.50
2022-08-20T12:28:46.051Z,31.20
2022-08-20T12:31:13.853Z,20.80
2022-08-20T12:33:41.672Z,15.20
2022-08-20T12:36:12.602Z,22.10
2022-08-20T12:38:40.437Z,17.90
2022-08-20T12:41:10.091Z,15.90
2022-08-20T12:43:37.869Z,17.10
2022-08-20T12:46:05.903Z,18.10
2022-08-20T12:48:33.697Z,13.90
2022-08-20T12:51:01.635Z,17.20
2022-08-20T12:53:32.284Z,16.20
2022-08-20T12:56:06.957Z,16.00
2022-08-20T12:58:35.496Z,15.90
2022-08-20T13:01:04.777Z,14.10
2022-08-20T13:03:34.612Z,16.40
2022-08-20T13:06:12.655Z,16.20
2022-08-20T13:08:41.906Z,15.50
2022-08-20T13:11:09.848Z,11.40
2022-08-20T13:13:38.339Z,15.60
2022-08-20T13:16:06.243Z,20.00
2022-08-20T13:18:35.347Z,13.30
2022-08-20T13:21:04.563Z,11.70
2022-08-20T13:23:33.880Z,15.30
2022-08-20T13:26:01.884Z,14.50
2022-08-20T13:28:31.646Z,16.00
2022-08-20T13:31:03.588Z,15.80
2022-08-20T13:33:32.754Z,14.00
2022-08-20T13:36:02.651Z,12.30
2022-08-20T13:38:31.853Z,16.50
2022-08-20T13:40:59.733Z,14.00
2022-08-20T13:43:29.537Z,17.00
2022-08-20T13:46:00.284Z,11.20
2022-08-20T13:48:28.045Z,14.50
2022-08-20T13:50:55.909Z,16.70
2022-08-20T13:53:24.059Z,18.60
2022-08-20T13:55:52.797Z,19.30
2022-08-20T13:58:23.196Z,12.70
2022-08-20T14:00:53.412Z,15.90
2022-08-20T14:03:25.438Z,15.90
2022-08-20T14:05:54.333Z,18.20
2022-08-20T14:08:24.828Z,12.60
2022-08-20T14:10:54.536Z,18.60
2022-08-20T14:13:24.403Z,18.70
2022-08-20T14:15:52.873Z,19.80
2022-08-20T14:18:20.867Z,17.90
2022-08-20T14:20:49.281Z,20.20
2022-08-20T14:23:18.238Z,18.80
2022-08-20T14:25:50.276Z,12.90
2022-08-20T14:28:21.947Z,18.60
2022-08-20T14:30:53.502Z,15.20
2022-08-20T14:33:25.568Z,15.60
2022-08-20T14:35:55.671Z,15.00
2022-08-20T14:38:23.650Z,16.30
2022-08-20T14:40:52.619Z,19.00
2022-08-20T14:43:20.402Z,20.00
2022-08-20T14:45:49.174Z,14.10
2022-08-20T14:48:19.430Z,19.80
2022-08-20T14:50:47.294Z,17.50
2022-08-20T14:53:17.108Z,15.00
2022-08-20T14:55:46.074Z,15.40
2022-08-20T14:58:17.959Z,15.30
2022-08-20T15:00:46.956Z,15.70
2022-08-20T15:03:16.173Z,10.70
2022-08-20T15:05:44.133Z,13.30
2022-08-20T15:08:11.977Z,19.10
2022-08-20T15:10:43.788Z,17.80
2022-08-20T15:13:11.554Z,16.40
2022-08-20T15:15:41.195Z,18.70
2022-08-20T15:18:12.154Z,13.80
2022-08-20T15:20:42.282Z,20.70
2022-08-20T15:23:12.390Z,14.20
2022-08-20T15:25:42.612Z,21.30
2022-08-20T15:28:13.314Z,16.90
2022-08-20T15:30:44.284Z,11.90
2022-08-20T15:33:13.257Z,22.10
2022-08-20T15:35:43.141Z,20.20
2022-08-20T15:38:13.320Z,15.10
2022-08-20T15:40:43.903Z,15.20
2022-08-20T15:43:11.877Z,14.70
2022-08-20T15:45:41.872Z,16.50
2022-08-20T15:48:12.455Z,16.00
2022-08-20T15:51:00.603Z,12.80
2022-08-20T15:53:53.460Z,18.90
2022-08-20T15:59:27.093Z,14.90
2022-08-20T16:02:07.862Z,14.70
2022-08-20T16:04:52.925Z,12.90
2022-08-20T16:07:32.624Z,13.70
2022-08-20T16:10:27.999Z,16.70
2022-08-20T16:13:02.516Z,20.10
2022-08-20T16:15:39.479Z,20.90
2022-08-20T16:18:22.080Z,16.30
2022-08-20T16:20:54.219Z,15.00
2022-08-20T16:23:36.749Z,16.00
2022-08-20T16:29:11.376Z,14.60
2022-08-20T16:31:53.593Z,14.80
2022-08-20T16:34:34.937Z,18.00
2022-08-20T16:37:16.629Z,19.70
2022-08-20T16:40:19.612Z,15.60
2022-08-20T16:42:51.500Z,17.40
2022-08-20T16:45:26.152Z,19.80
2022-08-20T16:47:59.029Z,28.50
2022-08-20T16:50:39.713Z,22.20
2022-08-20T16:53:17.582Z,18.20
2022-08-20T16:55:46.014Z,15.30
2022-08-20T16:58:14.454Z,18.20
2022-08-20T17:00:45.454Z,21.00
2022-08-20T17:03:33.546Z,19.40
2022-08-20T17:06:35.408Z,22.50
2022-08-20T17:09:14.937Z,25.00
2022-08-20T17:11:49.457Z,28.90
2022-08-20T17:14:19.473Z,21.20
2022-08-20T17:16:51.597Z,24.80
2022-08-20T17:19:19.323Z,18.30
2022-08-20T17:21:49.814Z,26.20
2022-08-20T17:24:32.116Z,24.90
2022-08-20T17:27:05.198Z,20.70
2022-08-20T17:29:54.702Z,18.60
2022-08-20T17:32:29.121Z,20.80
2022-08-20T17:35:02.685Z,23.90
2022-08-20T17:37:40.707Z,21.00
2022-08-20T17:40:20.461Z,21.60
2022-08-20T17:43:05.134Z,19.40
2022-08-20T17:45:44.965Z,20.70
2022-08-20T17:48:20.247Z,19.10
2022-08-20T17:50:49.988Z,20.60
2022-08-20T17:53:30.489Z,20.90
2022-08-20T17:56:16.177Z,21.50
2022-08-20T17:59:03.174Z,16.20
2022-08-20T18:01:32.206Z,21.00
2022-08-20T18:04:01.432Z,22.70
2022-08-20T18:06:58.872Z,15.90
2022-08-20T18:09:38.419Z,22.30
2022-08-20T18:12:33.848Z,20.30
2022-08-20T18:15:26.228Z,20.60
2022-08-20T18:18:12.939Z,19.60
2022-08-20T18:21:20.717Z,18.30
2022-08-20T18:24:08.756Z,21.20
2022-08-20T18:26:46.669Z,17.90
2022-08-20T18:29:20.158Z,21.60
2022-08-20T18:31:54.974Z,17.60
2022-08-20T18:34:37.538Z,18.10
2022-08-20T18:37:14.628Z,22.80
2022-08-20T18:39:48.352Z,20.60
2022-08-20T18:42:27.200Z,23.40
2022-08-20T18:44:57.857Z,20.80
2022-08-20T18:47:34.771Z,22.10
2022-08-20T18:50:25.323Z,23.30
2022-08-20T18:53:08.869Z,23.70
2022-08-20T18:55:43.021Z,21.20
2022-08-20T18:58:31.121Z,21.60
2022-08-20T19:01:02.004Z,20.70
2022-08-20T19:03:35.999Z,22.20
2022-08-20T19:06:15.647Z,20.20
2022-08-20T19:08:48.039Z,24.70
2022-08-20T19:11:41.033Z,22.80
2022-08-20T19:14:27.774Z,21.90
2022-08-20T19:17:10.889Z,26.30
2022-08-20T19:22:07.934Z,19.10
2022-08-20T19:24:44.446Z,23.30
2022-08-20T19:27:13.372Z,26.20
2022-08-20T19:29:47.855Z,22.90
2022-08-20T19:32:24.378Z,24.40
2022-08-20T19:34:58.908Z,28.50
2022-08-20T19:37:44.448Z,21.70
2022-08-20T19:40:43.613Z,24.10
2022-08-20T19:43:18.619Z,24.10
2022-08-20T19:45:50.768Z,20.40
2022-08-20T19:48:41.808Z,22.30
2022-08-20T19:51:09.690Z,23.10
2022-08-20T19:53:45.628Z,26.50
2022-08-20T19:56:19.735Z,24.70
2022-08-20T19:59:04.675Z,26.40
2022-08-20T20:01:34.229Z,27.90
2022-08-20T20:04:08.213Z,35.50
2022-08-20T20:06:48.905Z,26.50
2022-08-20T20:09:22.463Z,23.40
2022-08-20T20:11:55.495Z,26.40
2022-08-20T20:16:58.574Z,23.10
2022-08-20T20:19:28.263Z,20.80
2022-08-20T20:22:19.895Z,26.00
2022-08-20T20:25:00.127Z,23.20
2022-08-20T20:27:29.356Z,21.40
2022-08-20T20:30:05.828Z,27.50
2022-08-20T20:32:34.202Z,24.10
2022-08-20T20:35:06.276Z,24.10
2022-08-20T20:37:49.677Z,26.30
2022-08-20T20:40:33.992Z,23.80
2022-08-20T20:43:09.118Z,21.30
2022-08-20T20:45:43.756Z,23.60
2022-08-20T20:48:25.297Z,22.40
2022-08-20T20:50:56.400Z,23.70
2022-08-20T20:53:48.418Z,25.90
2022-08-20T20:56:34.772Z,20.50
2022-08-20T20:59:06.989Z,19.00
2022-08-20T21:01:41.229Z,25.10
2022-08-20T21:04:19.265Z,23.70
2022-08-20T21:06:48.289Z,26.70
2022-08-20T21:09:17.427Z,21.80
2022-08-20T21:11:46.034Z,27.60
2022-08-20T21:14:14.163Z,23.30
2022-08-20T21:16:43.750Z,22.00
2022-08-20T21:19:12.675Z,26.20
2022-08-20T21:21:41.532Z,24.80
2022-08-20T21:24:09.980Z,24.10
2022-08-20T21:26:39.602Z,22.70
2022-08-20T21:29:10.582Z,29.10
2022-08-20T21:31:43.649Z,24.60
2022-08-20T21:34:14.756Z,23.80
2022-08-20T21:36:42.791Z,22.00
2022-08-20T21:39:11.302Z,29.60
2022-08-20T21:41:42.592Z,23.10
2022-08-20T21:44:26.211Z,25.30
2022-08-20T21:46:55.584Z,26.60
2022-08-20T21:49:25.193Z,26.10
2022-08-20T21:51:53.981Z,23.00
2022-08-20T21:54:23.180Z,24.90
2022-08-20T21:57:03.062Z,22.30
2022-08-20T21:59:31.695Z,24.60
2022-08-20T22:02:01.414Z,24.90
2022-08-20T22:04:32.307Z,21.50
2022-08-20T22:07:05.290Z,25.70
2022-08-20T22:09:34.233Z,23.10
2022-08-20T22:12:03.025Z,24.50
2022-08-20T22:14:31.401Z,23.20
2022-08-20T22:16:59.359Z,27.30
2022-08-20T22:19:27.264Z,22.80
2022-08-20T22:21:56.738Z,24.60
2022-08-20T22:24:28.882Z,27.30
2022-08-20T22:26:56.890Z,24.80
2022-08-20T22:29:25.029Z,25.10
2022-08-20T22:31:53.426Z,25.50
2022-08-20T22:34:22.076Z,26.40
2022-08-20T22:36:53.443Z,26.10
2022-08-20T22:39:21.481Z,24.50
2022-08-20T22:41:50.146Z,28.00
2022-08-20T22:44:17.965Z,25.40
2022-08-20T22:46:48.953Z,24.00
2022-08-20T22:49:24.598Z,22.10
2022-08-20T22:51:52.930Z,22.30
2022-08-20T22:54:25.145Z,23.60
2022-08-20T22:56:55.219Z,23.00
2022-08-20T22:59:24.254Z,27.90
2022-08-20T23:01:53.061Z,24.10
2022-08-20T23:04:33.060Z,29.20
2022-08-20T23:07:04.277Z,26.30
2022-08-20T23:09:32.490Z,23.80
2022-08-20T23:12:00.827Z,26.90
2022-08-20T23:14:29.441Z,24.20
2022-08-20T23:17:13.427Z,25.40
2022-08-20T23:19:46.344Z,23.80
2022-08-20T23:22:15.351Z,25.20
2022-08-20T23:24:43.542Z,22.30
2022-08-20T23:27:15.945Z,26.70
2022-08-20T23:29:45.234Z,26.70
2022-08-20T23:32:14.270Z,25.10
2022-08-20T23:34:42.465Z,24.40
2022-08-20T23:37:11.766Z,24.60
2022-08-20T23:39:39.879Z,24.50
2022-08-20T23:42:08.123Z,23.00
2022-08-20T23:44:36.220Z,24.50
2022-08-20T23:47:04.880Z,24.20
2022-08-20T23:49:33.271Z,25.00
2022-08-20T23:52:02.186Z,24.40
2022-08-20T23:54:33.495Z,24.30
2022-08-20T23:57:01.907Z,24.50
2022-08-20T23:59:36.426Z,22.80
